Terminal Aerodrome Forecast
Issued by NWS

Current Version | Previous Version | Text Only | Print | Product List | Glossary Off
Versions: 1 2 3 4 5 6 7 8 9 10 11 12 13 14 15 16 17

000
FTUS41 KILN 262300 AAA
TAFLUK
TAF AMD
KLUK 262321Z 2623/2718 VRB04KT P6SM BKN050
      TEMPO 2623/2624 30015G25KT 2SM -TSRA OVC025CB
     FM270000 00000KT P6SM SCT250
     FM270600 00000KT 3SM BR SCT250
     FM270800 00000KT 2SM BR VCTS SCT050CB BKN100
     FM271300 34004KT P6SM VCTS BKN050CB=

USA.gov is the U.S. government's official web portal to all federal, state and local government web resources and services.